Time;durP1;ratioP1;P1;durP2;ratioP2;P2;SDS_P1;SDS_P2;PMS_P1;PMS_P2;Temp;Humidity;BMP_temperature;BMP_pressure;BME280_temperature;BME280_humidity;BME280_pressure;Samples;Min_cycle;Max_cycle;Signal;HPM_P1;HPM_P2
2023/03/09 00:00:37;;;;;;;;;1.50;0.50;;;;;10.39;74.64;99196.59;6275295;22;45682;-75
2023/03/09 00:03:03;;;;;;;;;5.25;3.00;;;;;10.35;75.52;99194.84;6277852;22;46437;-75
2023/03/09 00:05:28;;;;;;;;;4.50;3.00;;;;;10.35;74.98;99201.88;6275326;22;45134;-75
2023/03/09 00:07:55;;;;;;;;;6.00;5.00;;;;;10.21;75.68;99188.66;6278065;22;45209;-75
2023/03/09 00:10:21;;;;;;;;;4.25;2.75;;;;;10.25;74.64;99200.97;6277413;22;45449;-75
2023/03/09 00:12:46;;;;;;;;;5.25;3.50;;;;;10.23;75.32;99208.03;6275022;22;47925;-75
2023/03/09 00:15:12;;;;;;;;;3.25;2.00;;;;;10.26;75.77;99213.31;6278139;22;45272;-75
2023/03/09 00:17:37;;;;;;;;;2.00;1.00;;;;;10.23;75.06;99221.22;6278453;22;45215;-74
2023/03/09 00:20:16;;;;;;;;;5.25;2.00;;;;;10.15;74.64;99233.53;6279310;22;45201;-75
2023/03/09 00:22:42;;;;;;;;;1.25;0.25;;;;;10.16;74.42;99224.72;6279107;22;45930;-75
2023/03/09 00:25:08;;;;;;;;;5.50;4.25;;;;;10.17;75.39;99231.78;6280015;22;45238;-74
2023/03/09 00:27:33;;;;;;;;;1.50;1.50;;;;;10.04;75.12;99223.84;6280308;22;45086;-75
2023/03/09 00:29:58;;;;;;;;;3.00;1.00;;;;;10.03;75.18;99221.22;6278774;22;53024;-74
2023/03/09 00:32:24;;;;;;;;;3.00;2.00;;;;;9.94;75.19;99219.44;6277583;22;46124;-74
2023/03/09 00:34:49;;;;;;;;;7.00;2.00;;;;;9.80;74.80;99203.59;6277679;22;48541;-75
2023/03/09 00:37:14;;;;;;;;;0.75;0.75;;;;;9.93;74.78;99224.72;6277812;22;45188;-75
2023/03/09 00:39:40;;;;;;;;;0.50;0.00;;;;;9.88;74.59;99211.50;6277700;22;45418;-75
2023/03/09 00:42:05;;;;;;;;;0.25;0.25;;;;;10.03;75.10;99247.63;6277389;22;45254;-74
2023/03/09 00:44:30;;;;;;;;;0.00;0.00;;;;;10.02;73.91;99248.47;6301213;22;45530;-74
2023/03/09 00:46:56;;;;;;;;;1.00;1.00;;;;;9.86;74.31;99232.63;6277907;22;45227;-76
2023/03/09 00:49:21;;;;;;;;;1.50;1.25;;;;;9.97;74.67;99255.50;6277185;22;45165;-76
2023/03/09 00:51:46;;;;;;;;;2.00;1.00;;;;;9.77;74.37;99235.22;6277848;22;45224;-76
2023/03/09 00:54:13;;;;;;;;;2.00;1.00;;;;;9.95;74.86;99260.78;6277336;22;45196;-76
2023/03/09 00:56:40;;;;;;;;;2.00;2.00;;;;;9.93;74.37;99262.53;6278035;22;45240;-75
2023/03/09 00:59:05;;;;;;;;;3.00;1.50;;;;;9.82;74.03;99261.63;6276908;22;45189;-76
2023/03/09 01:01:30;;;;;;;;;4.75;1.25;;;;;9.81;74.08;99266.03;6277647;22;45156;-76
2023/03/09 01:03:56;;;;;;;;;2.25;1.00;;;;;9.89;74.66;99278.34;6278674;22;45231;-76
2023/03/09 01:06:22;;;;;;;;;3.25;2.00;;;;;9.86;75.16;99298.59;6278891;22;46482;-76
2023/03/09 01:08:48;;;;;;;;;2.75;1.75;;;;;9.73;74.30;99273.03;6276957;22;45262;-76
2023/03/09 01:11:14;;;;;;;;;0.75;0.50;;;;;9.83;74.24;99289.78;6278976;22;46435;-76
2023/03/09 01:13:40;;;;;;;;;1.00;1.00;;;;;9.79;75.30;99291.53;6276433;22;45334;-76
2023/03/09 01:16:07;;;;;;;;;1.00;1.00;;;;;9.76;74.39;99285.38;6277479;22;45319;-76
2023/03/09 01:18:32;;;;;;;;;2.00;1.00;;;;;9.72;74.84;99284.47;6277047;22;45311;-76
2023/03/09 01:20:59;;;;;;;;;0.00;0.00;;;;;9.76;73.83;99290.66;6277368;22;47252;-75
2023/03/09 01:23:25;;;;;;;;;2.75;1.00;;;;;9.78;74.62;99300.34;6276559;22;45208;-76
2023/03/09 01:25:50;;;;;;;;;3.50;1.25;;;;;9.72;74.11;99288.84;6275600;22;45354;-76
2023/03/09 01:28:15;;;;;;;;;0.75;0.75;;;;;9.77;74.73;99302.94;6276705;22;45971;-76
2023/03/09 01:30:41;;;;;;;;;1.25;1.00;;;;;9.74;74.66;99322.28;6301322;22;47066;-76
2023/03/09 01:33:06;;;;;;;;;2.25;1.00;;;;;9.69;73.87;99304.69;6274736;22;45210;-76
2023/03/09 01:35:32;;;;;;;;;3.00;0.75;;;;;9.72;74.16;99331.97;6277527;22;45121;-76
2023/03/09 01:37:57;;;;;;;;;2.75;1.75;;;;;9.72;74.32;99333.72;6274633;22;45659;-75
2023/03/09 01:40:25;;;;;;;;;1.00;1.00;;;;;9.60;73.81;99314.31;6301048;22;47062;-76
2023/03/09 01:42:59;;;;;;;;;3.00;0.50;;;;;9.74;74.62;99332.84;6276622;22;45244;-76
2023/03/09 01:45:24;;;;;;;;;0.75;0.75;;;;;9.73;74.95;99339.00;6278330;22;45298;-76
2023/03/09 01:47:51;;;;;;;;;0.00;0.00;;;;;9.74;74.44;99347.81;6278783;22;45299;-76
2023/03/09 01:50:21;;;;;;;;;1.75;1.00;;;;;9.67;74.14;99336.34;6278710;22;45324;-76
2023/03/09 01:52:49;;;;;;;;;1.25;0.25;;;;;9.73;74.45;99346.03;6280051;22;45801;-76
2023/03/09 01:55:20;;;;;;;;;1.25;0.75;;;;;9.76;74.46;99346.06;6279910;22;45256;-76
2023/03/09 01:57:57;;;;;;;;;3.00;1.75;;;;;9.76;74.71;99343.41;6278090;22;45184;-76
2023/03/09 02:00:24;;;;;;;;;6.75;2.00;;;;;9.61;74.40;99316.09;6276565;22;47445;-76
2023/03/09 02:02:58;;;;;;;;;1.00;1.00;;;;;9.71;74.22;99338.13;6275932;22;45746;-76
2023/03/09 02:05:34;;;;;;;;;2.00;1.00;;;;;9.70;74.43;99322.28;6279118;22;45082;-76
2023/03/09 02:08:00;;;;;;;;;2.75;1.00;;;;;9.83;73.67;99347.81;6278260;22;45185;-76
2023/03/09 02:10:32;;;;;;;;;0.25;0.00;;;;;9.85;74.26;99346.97;6278508;22;45168;-75
2023/03/09 02:13:06;;;;;;;;;1.00;1.00;;;;;9.81;74.53;99345.19;6276502;22;45247;-76
2023/03/09 02:15:31;;;;;;;;;1.00;1.00;;;;;9.90;74.01;99356.66;6278602;22;45222;-75
2023/03/09 02:17:57;;;;;;;;;5.00;1.00;;;;;9.83;74.69;99334.63;6278285;22;45150;-75
2023/03/09 02:20:51;;;;;;;;;0.25;0.25;;;;;9.96;74.75;99362.84;6276441;22;47565;-76
2023/03/09 02:23:36;;;;;;;;;0.00;0.00;;;;;9.98;73.63;99370.78;6195078;22;45247;-74
2023/03/09 02:26:22;;;;;;;;;1.75;1.00;;;;;9.99;74.34;99361.97;6279847;22;45166;-75
2023/03/09 02:28:49;;;;;;;;;1.00;1.00;;;;;9.99;74.45;99361.97;6279226;22;45710;-76
2023/03/09 02:31:15;;;;;;;;;3.50;1.25;;;;;9.94;74.37;99356.69;6279970;22;45449;-76
2023/03/09 02:33:41;;;;;;;;;1.75;0.50;;;;;10.04;74.43;99368.16;6278124;22;45404;-76
2023/03/09 02:36:07;;;;;;;;;2.75;1.00;;;;;10.13;73.83;99376.09;6281804;22;45218;-76
2023/03/09 02:38:33;;;;;;;;;1.00;1.00;;;;;10.12;74.35;99365.53;6278590;22;45247;-76
2023/03/09 02:41:01;;;;;;;;;3.00;2.00;;;;;10.16;74.19;99389.31;6276387;22;46948;-76
2023/03/09 02:43:40;;;;;;;;;1.00;1.00;;;;;10.16;73.86;99386.66;6277789;22;45196;-76
2023/03/09 02:46:06;;;;;;;;;3.00;1.00;;;;;10.16;74.29;99380.50;6278609;22;45185;-75
2023/03/09 02:48:31;;;;;;;;;3.00;1.00;;;;;10.27;74.62;99402.59;6277732;22;45266;-76
2023/03/09 02:50:56;;;;;;;;;1.25;1.25;;;;;10.27;73.89;99399.94;6278311;22;48533;-76
2023/03/09 02:53:22;;;;;;;;;5.25;1.50;;;;;10.27;74.05;99403.47;6278043;22;45242;-76
2023/03/09 02:55:47;;;;;;;;;3.00;0.75;;;;;10.28;73.89;99399.97;6278674;22;45534;-76
2023/03/09 02:58:13;;;;;;;;;1.50;1.00;;;;;10.24;74.09;99397.25;6301076;22;45425;-76
2023/03/09 03:00:38;;;;;;;;;2.75;1.75;;;;;10.29;74.50;99407.00;6278127;22;45949;-76
2023/03/09 03:03:03;;;;;;;;;1.50;1.00;;;;;10.29;74.57;99409.63;6278098;22;45196;-75
2023/03/09 03:05:29;;;;;;;;;1.50;1.50;;;;;10.36;73.65;99415.81;6278633;22;45437;-75
2023/03/09 03:07:54;;;;;;;;;5.00;1.00;;;;;10.23;74.00;99396.38;6278379;22;45302;-76
2023/03/09 03:10:20;;;;;;;;;4.75;3.00;;;;;10.32;74.22;99416.69;6278921;22;45081;-76
2023/03/09 03:12:45;;;;;;;;;4.00;1.25;;;;;10.40;73.50;99414.06;6278399;22;45219;-76
2023/03/09 03:15:11;;;;;;;;;2.50;1.00;;;;;10.38;73.75;99419.34;6280365;22;45103;-76
2023/03/09 03:17:36;;;;;;;;;4.75;1.00;;;;;10.41;74.02;99423.75;6280507;22;45213;-75
2023/03/09 03:20:02;;;;;;;;;4.75;1.00;;;;;10.45;74.07;99428.19;6278747;22;45357;-76
2023/03/09 03:22:28;;;;;;;;;1.75;1.00;;;;;10.43;73.33;99433.44;6277817;22;45244;-76
2023/03/09 03:24:53;;;;;;;;;3.25;0.25;;;;;10.41;73.94;99419.34;6278331;22;45097;-76
2023/03/09 03:27:19;;;;;;;;;1.75;1.00;;;;;10.47;74.09;99432.59;6277326;22;45362;-76
2023/03/09 03:29:45;;;;;;;;;2.00;1.00;;;;;10.41;73.30;99419.34;6275502;22;56354;-76
2023/03/09 03:32:11;;;;;;;;;4.75;1.50;;;;;10.51;74.01;99446.69;6277823;22;45267;-76
2023/03/09 03:34:37;;;;;;;;;2.00;1.00;;;;;10.53;73.83;99440.53;6278247;22;45208;-76
2023/03/09 03:37:02;;;;;;;;;2.00;2.00;;;;;10.53;74.14;99437.88;6277974;22;45259;-76
2023/03/09 03:39:27;;;;;;;;;5.00;2.00;;;;;10.43;73.25;99437.84;6277925;22;45300;-76
2023/03/09 03:41:53;;;;;;;;;4.50;1.00;;;;;10.47;74.60;99447.53;6276039;22;45294;-76
2023/03/09 03:44:18;;;;;;;;;1.00;1.00;;;;;10.43;73.73;99435.22;6277945;22;45270;-76
2023/03/09 03:46:43;;;;;;;;;3.50;1.50;;;;;10.52;74.33;99449.31;6278317;22;45295;-76
2023/03/09 03:49:09;;;;;;;;;2.75;1.50;;;;;10.48;73.82;99433.47;6275563;22;45271;-76
2023/03/09 03:51:34;;;;;;;;;1.50;1.25;;;;;10.54;74.10;99454.63;6276493;22;45242;-76
2023/03/09 03:53:59;;;;;;;;;3.25;2.00;;;;;10.53;74.21;99458.16;6279880;22;45660;-76
2023/03/09 03:56:25;;;;;;;;;2.50;1.50;;;;;10.49;73.96;99451.06;6279863;22;45105;-76
2023/03/09 03:58:50;;;;;;;;;4.00;1.00;;;;;10.54;74.00;99470.47;6280123;22;45212;-76
2023/03/09 04:01:16;;;;;;;;;2.75;1.75;;;;;10.56;74.22;99476.66;6279442;22;45207;-76
2023/03/09 04:03:41;;;;;;;;;2.75;2.00;;;;;10.48;74.18;99462.53;6278694;22;45145;-76
2023/03/09 04:06:07;;;;;;;;;3.00;2.00;;;;;10.57;74.33;99480.16;6278400;22;45144;-76
2023/03/09 04:08:32;;;;;;;;;1.25;1.25;;;;;10.31;75.18;99433.44;6277359;22;45268;-76
2023/03/09 04:10:58;;;;;;;;;5.25;3.00;;;;;10.50;73.83;99464.31;6278200;22;45188;-76
2023/03/09 04:13:23;;;;;;;;;1.50;1.00;;;;;10.47;74.21;99464.28;6276538;22;45223;-76
2023/03/09 04:15:49;;;;;;;;;3.00;1.25;;;;;10.52;73.94;99474.84;6278060;22;45441;-75
2023/03/09 04:18:14;;;;;;;;;6.00;1.75;;;;;10.57;73.87;99490.75;6275066;22;46683;-76
2023/03/09 04:20:42;;;;;;;;;3.75;1.75;;;;;10.56;74.91;99486.31;6278180;22;45298;-76
2023/03/09 04:23:09;;;;;;;;;5.00;2.25;;;;;10.51;73.80;99486.31;6277714;22;45307;-75
2023/03/09 04:25:35;;;;;;;;;2.25;1.00;;;;;10.46;74.22;99477.50;6277683;22;45339;-75
2023/03/09 04:28:00;;;;;;;;;2.00;1.00;;;;;10.52;74.63;99490.72;6276991;22;46113;-76
2023/03/09 04:30:25;;;;;;;;;2.00;1.50;;;;;10.47;73.94;99476.59;6278272;22;44636;-76
2023/03/09 04:32:51;;;;;;;;;2.25;2.25;;;;;10.58;74.64;99487.22;6277888;22;45167;-76
2023/03/09 04:35:17;;;;;;;;;3.25;1.00;;;;;10.66;74.06;99509.25;6278423;22;45254;-75
2023/03/09 04:37:43;;;;;;;;;2.50;1.00;;;;;10.66;73.89;99502.19;6279385;22;46436;-75
2023/03/09 04:40:10;;;;;;;;;5.25;3.00;;;;;10.51;74.77;99492.47;6279799;22;45263;-75
2023/03/09 04:42:35;;;;;;;;;4.00;1.25;;;;;10.66;74.33;99518.06;6279511;22;45310;-76
2023/03/09 04:45:00;;;;;;;;;5.00;2.25;;;;;10.61;74.43;99505.72;6278434;22;45314;-76
2023/03/09 04:47:26;;;;;;;;;6.00;1.00;;;;;10.71;74.49;99529.53;6277533;22;45393;-76
2023/03/09 04:49:51;;;;;;;;;4.50;2.00;;;;;10.65;74.74;99529.53;6277825;22;45228;-76
2023/03/09 04:52:16;;;;;;;;;2.00;2.00;;;;;10.63;74.16;99520.69;6277848;22;45200;-76
2023/03/09 04:54:42;;;;;;;;;3.75;2.00;;;;;10.74;74.56;99542.75;6277691;22;45177;-76
2023/03/09 04:57:07;;;;;;;;;5.00;4.00;;;;;10.76;73.43;99529.56;6277019;22;45275;-76
2023/03/09 04:59:33;;;;;;;;;3.25;1.00;;;;;10.74;73.78;99532.19;6277669;22;45262;-76
2023/03/09 05:01:58;;;;;;;;;4.50;2.25;;;;;10.65;74.13;99518.06;6278046;22;45248;-75
2023/03/09 05:04:24;;;;;;;;;2.00;2.00;;;;;10.68;74.49;99518.06;6274849;22;46585;-76
2023/03/09 05:06:50;;;;;;;;;3.00;1.75;;;;;10.71;74.41;99533.94;6277990;22;45270;-76
2023/03/09 05:09:16;;;;;;;;;2.00;2.00;;;;;10.70;73.70;99542.75;6277305;22;45216;-76
2023/03/09 05:11:41;;;;;;;;;6.50;1.50;;;;;10.69;74.25;99531.28;6277716;22;44721;-75
2023/03/09 05:14:07;;;;;;;;;2.25;2.00;;;;;10.68;74.32;99533.94;6277094;22;45156;-76
2023/03/09 05:16:32;;;;;;;;;5.00;3.00;;;;;10.81;74.71;99548.97;6278883;22;45161;-76
2023/03/09 05:18:57;;;;;;;;;3.00;1.50;;;;;10.83;73.67;99556.88;6278709;22;45173;-77
2023/03/09 05:21:23;;;;;;;;;6.00;2.00;;;;;10.79;74.30;99548.06;6278957;22;44653;-76
2023/03/09 05:23:48;;;;;;;;;5.00;3.00;;;;;10.74;74.87;99534.81;6278600;22;45611;-75
2023/03/09 05:26:13;;;;;;;;;5.50;2.00;;;;;10.82;74.68;99549.84;6280610;22;46171;-75
2023/03/09 05:28:40;;;;;;;;;5.75;2.25;;;;;10.82;73.64;99541.91;6276569;22;45241;-75
2023/03/09 05:31:12;;;;;;;;;1.50;1.00;;;;;10.68;74.39;99524.25;6278787;22;45699;-75
2023/03/09 05:33:37;;;;;;;;;3.75;1.75;;;;;10.75;73.95;99544.53;6278621;22;45105;-75
2023/03/09 05:36:13;;;;;;;;;1.50;1.00;;;;;10.79;74.26;99549.84;6276368;22;45782;-75
2023/03/09 05:38:38;;;;;;;;;6.25;3.00;;;;;10.75;74.30;99546.28;6278541;22;45208;-74
2023/03/09 05:41:05;;;;;;;;;4.25;2.50;;;;;10.78;74.65;99561.25;6278387;22;45206;-76
2023/03/09 05:43:30;;;;;;;;;1.75;1.75;;;;;10.81;74.54;99559.53;6276598;22;45971;-77
2023/03/09 05:45:56;;;;;;;;;3.00;3.00;;;;;10.79;74.77;99563.94;6280479;22;45231;-75
2023/03/09 05:48:21;;;;;;;;;0.50;0.50;;;;;10.81;74.43;99567.47;6278964;22;45247;-76
2023/03/09 05:50:47;;;;;;;;;6.25;2.00;;;;;10.75;74.28;99544.53;6279887;22;45283;-77
2023/03/09 05:53:12;;;;;;;;;4.00;1.00;;;;;10.83;74.34;99559.53;6276195;22;46805;-76
2023/03/09 05:55:37;;;;;;;;;2.00;1.25;;;;;10.72;73.81;99541.84;6279223;22;45199;-76
2023/03/09 05:58:03;;;;;;;;;9.25;0.25;;;;;10.71;74.42;99550.69;6278164;22;46941;-76
2023/03/09 06:00:28;;;;;;;;;4.50;2.00;;;;;10.61;74.70;99548.00;6279501;22;45697;-76
2023/03/09 06:02:53;;;;;;;;;2.25;1.50;;;;;10.79;74.49;99577.16;6304466;22;46420;-76
2023/03/09 06:05:19;;;;;;;;;2.50;1.25;;;;;10.80;74.06;99578.03;6277269;22;48137;-76
2023/03/09 06:07:44;;;;;;;;;1.25;1.00;;;;;10.67;74.06;99567.41;6279534;22;45184;-76
2023/03/09 06:10:11;;;;;;;;;2.25;1.50;;;;;10.80;74.35;99589.47;6279069;22;45269;-76
2023/03/09 06:12:36;;;;;;;;;3.50;2.00;;;;;10.77;74.58;99591.22;6277522;22;45244;-76
2023/03/09 06:15:02;;;;;;;;;3.50;1.25;;;;;10.52;75.11;99551.47;6278200;22;45168;-75
2023/03/09 06:17:27;;;;;;;;;4.75;1.50;;;;;10.74;75.33;99597.38;6278272;22;45180;-75
2023/03/09 06:19:53;;;;;;;;;4.50;2.00;;;;;10.68;74.81;99595.59;6278738;22;45266;-74
2023/03/09 06:22:19;;;;;;;;;2.00;2.00;;;;;10.70;74.48;99603.53;6277991;22;45216;-74
2023/03/09 06:24:44;;;;;;;;;3.25;1.25;;;;;10.71;74.36;99607.94;6278140;22;45165;-74
2023/03/09 06:27:09;;;;;;;;;3.00;2.00;;;;;10.61;74.86;99596.44;6277479;22;45290;-74
2023/03/09 06:29:35;;;;;;;;;3.25;1.50;;;;;10.71;74.35;99616.75;6278493;22;45224;-74
2023/03/09 06:32:00;;;;;;;;;4.00;2.75;;;;;10.68;75.16;99615.88;6277735;22;45274;-74
2023/03/09 06:34:29;;;;;;;;;9.00;2.00;;;;;10.75;74.39;99618.56;6278273;22;46363;-74
2023/03/09 06:36:54;;;;;;;;;6.25;2.00;;;;;10.72;74.53;99620.28;6277822;22;45259;-75
2023/03/09 06:39:19;;;;;;;;;2.25;1.00;;;;;10.80;75.14;99625.59;6278241;22;45463;-75
2023/03/09 06:41:45;;;;;;;;;3.25;2.00;;;;;10.81;74.99;99625.63;6278260;22;45481;-75
2023/03/09 06:44:11;;;;;;;;;4.50;3.00;;;;;10.83;75.80;99631.78;6275768;22;45923;-74
2023/03/09 06:46:36;;;;;;;;;4.75;1.00;;;;;10.88;74.83;99639.75;6278918;22;45188;-75
2023/03/09 06:49:02;;;;;;;;;6.00;1.00;;;;;10.91;74.54;99639.75;6278897;22;45423;-74
2023/03/09 06:51:27;;;;;;;;;4.75;3.50;;;;;10.93;74.95;99632.72;6278329;22;45404;-74
2023/03/09 06:53:52;;;;;;;;;6.50;2.75;;;;;10.95;74.83;99637.13;6278208;22;45322;-75
2023/03/09 06:56:18;;;;;;;;;4.50;2.00;;;;;10.88;75.39;99634.44;6278013;22;45215;-74
2023/03/09 06:58:43;;;;;;;;;3.25;2.00;;;;;10.89;75.06;99638.84;6277569;22;49273;-75
2023/03/09 07:01:11;;;;;;;;;6.00;3.00;;;;;10.94;74.08;99634.47;6276326;22;46398;-74
2023/03/09 07:03:37;;;;;;;;;9.00;6.00;;;;;11.03;75.01;99649.47;6278275;22;45298;-75
2023/03/09 07:06:03;;;;;;;;;5.25;2.00;;;;;11.04;74.66;99652.16;6278269;22;45286;-75
2023/03/09 07:08:29;;;;;;;;;3.75;3.00;;;;;11.06;74.05;99652.13;6277475;22;45251;-75
2023/03/09 07:10:54;;;;;;;;;7.25;4.00;;;;;11.09;74.86;99662.72;6278190;22;45188;-75
2023/03/09 16:34:04;;;;;;;;;2.67;1.33;;;;;15.53;61.85;99248.66;6215147;22;46462;-71
2023/03/09 16:36:30;;;;;;;;;1.00;1.00;;;;;15.32;62.15;99215.34;6276019;22;44917;-72
2023/03/09 16:39:00;;;;;;;;;4.00;3.00;;;;;15.31;62.30;99211.78;6276636;22;45464;-71
2023/03/09 16:41:26;;;;;;;;;5.33;1.33;;;;;15.14;62.23;99180.19;6276102;22;44676;-72
2023/03/09 16:43:51;;;;;;;;;4.00;1.00;;;;;15.31;62.58;99203.81;6276431;22;45224;-72
2023/03/09 16:46:20;;;;;;;;;2.33;2.33;;;;;15.18;62.78;99183.69;6274575;22;45849;-73
2023/03/09 16:48:46;;;;;;;;;6.33;2.33;;;;;15.16;63.80;99190.84;6274118;22;45616;-72
2023/03/09 16:51:14;;;;;;;;;4.33;3.00;;;;;15.15;63.76;99192.63;6274871;22;45341;-72
2023/03/09 16:53:39;;;;;;;;;2.67;2.00;;;;;15.02;63.23;99177.78;6277038;22;45270;-72
2023/03/09 16:56:06;;;;;;;;;4.00;2.00;;;;;15.04;63.91;99181.31;6276772;22;50682;-72
2023/03/09 16:58:33;;;;;;;;;4.00;2.67;;;;;15.02;64.08;99172.47;6276612;22;45494;-72
2023/03/09 17:00:59;;;;;;;;;2.00;2.00;;;;;14.97;64.29;99163.69;6274654;22;45182;-72
2023/03/09 17:03:25;;;;;;;;;4.33;2.00;;;;;14.83;64.12;99144.47;6276590;22;45216;-72
2023/03/09 17:05:51;;;;;;;;;2.67;1.00;;;;;14.77;65.06;99149.00;6275083;22;46315;-72
2023/03/09 17:08:18;;;;;;;;;3.00;1.67;;;;;14.81;64.83;99156.91;6275007;22;46934;-72
2023/03/09 17:10:45;;;;;;;;;4.00;3.00;;;;;14.78;64.91;99161.38;6275020;22;45323;-72
2023/03/09 17:13:10;;;;;;;;;5.00;3.00;;;;;14.77;64.99;99156.13;6277009;22;45275;-72
2023/03/09 17:15:37;;;;;;;;;4.67;2.00;;;;;14.54;64.43;99116.66;6277285;22;45562;-72
2023/03/09 17:18:02;;;;;;;;;4.00;2.00;;;;;14.63;65.25;99142.22;6277309;22;45227;-71
2023/03/09 17:20:28;;;;;;;;;3.33;2.33;;;;;14.49;65.24;99137.09;6274922;22;45263;-71
2023/03/09 17:22:54;;;;;;;;;4.67;2.33;;;;;14.53;66.83;99163.63;6276468;22;44738;-72
2023/03/09 17:25:22;;;;;;;;;4.00;4.00;;;;;14.50;67.47;99165.44;6278432;22;45237;-72
2023/03/09 17:27:47;;;;;;;;;5.00;3.00;;;;;14.38;67.35;99150.59;6278196;22;45306;-72
2023/03/09 17:30:15;;;;;;;;;4.67;2.33;;;;;14.25;69.19;99149.91;6278362;22;45250;-72
2023/03/09 17:32:41;;;;;;;;;5.00;2.33;;;;;14.25;69.26;99160.53;6276634;22;45197;-72
2023/03/09 17:35:08;;;;;;;;;3.67;3.33;;;;;13.91;69.46;99101.78;6277740;22;45187;-72
2023/03/09 17:37:37;;;;;;;;;3.00;2.00;;;;;14.16;69.69;99146.53;6276425;22;46958;-72
2023/03/09 17:40:08;;;;;;;;;5.00;4.00;;;;;14.07;70.09;99144.94;6277641;22;45281;-72
2023/03/09 17:42:34;;;;;;;;;2.00;2.00;;;;;13.96;68.28;99131.81;6278821;22;45642;-72
2023/03/09 17:45:00;;;;;;;;;5.33;2.00;;;;;13.79;67.82;99096.69;6277638;22;45475;-72
2023/03/09 17:47:27;;;;;;;;;4.00;1.67;;;;;13.69;68.69;99090.63;6276490;22;45352;-73
2023/03/09 17:49:52;;;;;;;;;2.33;2.33;;;;;13.73;68.72;99108.28;6277687;22;45344;-72
2023/03/09 17:52:17;;;;;;;;;2.00;2.00;;;;;13.77;69.46;99123.25;6278100;22;45318;-72
2023/03/09 17:54:43;;;;;;;;;3.00;2.00;;;;;13.80;69.22;99131.16;6277995;22;45377;-72
2023/03/09 17:57:08;;;;;;;;;4.00;2.33;;;;;13.61;70.42;99097.84;6276501;22;45515;-71
2023/03/09 17:59:35;;;;;;;;;3.00;2.00;;;;;13.56;69.90;99097.94;6275364;22;45273;-72
2023/03/09 18:02:02;;;;;;;;;4.00;2.33;;;;;13.64;69.66;99119.06;6276286;22;45299;-72
2023/03/09 18:04:27;;;;;;;;;2.00;1.00;;;;;13.64;69.86;99130.53;6277481;22;45410;-72
2023/03/09 18:06:53;;;;;;;;;5.00;1.00;;;;;13.46;69.91;99100.72;6277996;22;45749;-71
2023/03/09 18:09:18;;;;;;;;;1.67;1.67;;;;;13.58;69.44;99125.34;6301901;22;46024;-72
2023/03/09 18:11:43;;;;;;;;;1.33;1.33;;;;;13.50;68.77;99121.00;6278632;22;45143;-72
2023/03/09 18:14:09;;;;;;;;;2.67;1.33;;;;;13.39;68.55;99107.91;6277934;22;45214;-71
2023/03/09 18:16:35;;;;;;;;;4.33;2.00;;;;;13.29;69.62;99101.84;6278211;22;45193;-72
2023/03/09 18:19:00;;;;;;;;;0.33;0.33;;;;;13.45;68.88;99123.75;6277446;22;45207;-72
2023/03/09 18:21:26;;;;;;;;;3.33;3.33;;;;;13.42;69.35;99118.50;6276547;22;45198;-71
2023/03/09 18:23:53;;;;;;;;;6.00;5.00;;;;;13.36;69.58;99118.56;6301959;22;46714;-72
2023/03/09 18:26:28;;;;;;;;;8.67;8.33;;;;;13.35;68.85;99122.97;6278509;22;46554;-72
2023/03/09 18:28:54;;;;;;;;;4.00;3.00;;;;;13.29;68.94;99120.44;6277102;22;45339;-72
2023/03/09 18:31:20;;;;;;;;;1.33;1.00;;;;;13.30;69.34;99116.84;6276422;22;45256;-72
2023/03/09 18:33:46;;;;;;;;;2.33;2.33;;;;;13.25;69.73;99105.44;6276780;22;45375;-72
2023/03/09 18:36:13;;;;;;;;;2.00;2.00;;;;;13.25;69.55;99115.13;6278354;22;46215;-72
2023/03/09 18:38:40;;;;;;;;;2.00;1.00;;;;;13.21;70.26;99117.84;6277694;22;45189;-72
2023/03/09 18:41:05;;;;;;;;;4.00;3.00;;;;;13.25;70.32;99126.66;6278130;22;45231;-72
2023/03/09 18:43:31;;;;;;;;;4.00;2.33;;;;;13.09;70.31;99103.88;6277820;22;45185;-73
2023/03/09 18:45:56;;;;;;;;;2.67;2.67;;;;;13.13;70.52;99101.13;6277818;22;46484;-73
2023/03/09 18:48:21;;;;;;;;;6.00;5.00;;;;;13.21;69.99;99111.66;6275734;22;45698;-73
2023/03/09 18:50:54;;;;;;;;;3.67;3.00;;;;;13.10;70.23;99092.34;6278613;22;45310;-72
2023/03/09 18:53:22;;;;;;;;;2.33;2.00;;;;;13.12;71.42;99098.53;6278391;22;45129;-73
2023/03/09 18:55:56;;;;;;;;;3.67;3.67;;;;;13.14;70.72;99107.34;6275838;22;46958;-73
2023/03/09 18:58:23;;;;;;;;;4.00;4.00;;;;;13.12;71.87;99096.75;6277661;22;45215;-73
2023/03/09 19:00:48;;;;;;;;;5.00;5.00;;;;;13.03;71.01;99080.09;6278283;22;45283;-73
2023/03/09 19:03:14;;;;;;;;;4.67;4.00;;;;;13.02;70.72;99078.31;6277714;22;45347;-73
2023/03/09 19:05:40;;;;;;;;;4.00;4.00;;;;;13.04;71.08;99072.09;6278006;22;45540;-73
2023/03/09 19:08:06;;;;;;;;;5.00;3.00;;;;;13.10;70.53;99081.75;6275808;22;45348;-73
2023/03/09 19:10:31;;;;;;;;;4.00;4.00;;;;;13.07;70.72;99081.78;6278363;22;45157;-73
2023/03/09 19:12:56;;;;;;;;;5.00;4.00;;;;;13.05;71.29;99072.97;6277979;22;45212;-73
2023/03/09 19:15:22;;;;;;;;;2.00;2.00;;;;;13.00;71.00;99075.69;6278350;22;46545;-73
2023/03/09 19:17:47;;;;;;;;;6.00;5.00;;;;;13.08;71.07;99083.53;6277883;22;45161;-73
2023/03/09 19:20:12;;;;;;;;;7.33;5.33;;;;;12.98;71.99;99086.31;6277886;22;45258;-74
2023/03/09 19:22:39;;;;;;;;;3.33;2.00;;;;;12.84;73.63;99075.00;6275753;22;46047;-74
2023/03/09 19:25:05;;;;;;;;;4.33;3.00;;;;;12.78;73.38;99075.09;6277681;22;45248;-74
2023/03/09 19:27:30;;;;;;;;;5.00;1.67;;;;;12.66;73.98;99057.56;6277895;22;45219;-73
2023/03/09 19:29:55;;;;;;;;;2.67;2.67;;;;;12.76;73.06;99074.22;6277677;22;45518;-73
2023/03/09 19:32:21;;;;;;;;;5.33;4.00;;;;;12.75;75.21;99062.75;6277997;22;49066;-73
2023/03/09 19:34:46;;;;;;;;;5.00;4.00;;;;;12.80;74.19;99081.25;6277029;22;46397;-73
2023/03/09 19:37:12;;;;;;;;;2.00;2.00;;;;;12.62;73.71;99045.22;6275457;22;45547;-73
2023/03/09 19:39:39;;;;;;;;;6.00;5.00;;;;;12.58;73.91;99032.94;6278136;22;45370;-73
2023/03/09 19:42:08;;;;;;;;;2.00;2.00;;;;;12.71;73.43;99061.00;6275842;22;45450;-73
2023/03/09 19:44:34;;;;;;;;;5.00;2.00;;;;;12.73;73.13;99050.41;6277281;22;45510;-73
2023/03/09 19:47:00;;;;;;;;;3.00;3.00;;;;;12.67;73.51;99038.09;6277897;22;45343;-72
2023/03/09 19:49:27;;;;;;;;;4.67;4.00;;;;;12.69;73.98;99032.78;6277493;22;45187;-72
2023/03/09 19:51:56;;;;;;;;;5.00;4.00;;;;;12.76;73.77;99051.22;6277716;22;45279;-73
2023/03/09 19:54:22;;;;;;;;;9.00;9.00;;;;;12.69;73.13;99027.50;6277552;22;46324;-73
2023/03/09 19:56:48;;;;;;;;;4.00;4.00;;;;;12.79;74.06;99046.78;6277912;22;45270;-73
2023/03/09 19:59:15;;;;;;;;;6.00;6.00;;;;;12.59;73.83;99017.91;6277575;22;45224;-72
2023/03/09 20:01:46;;;;;;;;;8.00;5.33;;;;;12.66;73.22;99028.41;6277549;22;45477;-73
2023/03/09 20:04:17;;;;;;;;;12.25;9.50;;;;;12.68;73.41;99034.53;6274714;22;47233;-72
2023/03/09 20:06:48;;;;;;;;;17.25;13.00;;;;;12.72;73.68;99040.72;6301533;22;45220;-73
2023/03/09 20:09:21;;;;;;;;;7.67;7.00;;;;;12.73;74.75;99038.03;6277746;22;45219;-73
2023/03/09 20:11:47;;;;;;;;;8.00;5.67;;;;;12.63;75.53;99017.84;6277873;22;45144;-73
2023/03/09 20:14:12;;;;;;;;;2.00;2.00;;;;;12.42;74.89;98983.66;6274732;22;46658;-73
2023/03/09 20:16:39;;;;;;;;;5.00;2.00;;;;;12.43;73.98;98985.41;6277468;22;45207;-73
2023/03/09 20:19:07;;;;;;;;;1.00;1.00;;;;;12.60;74.67;99012.56;6277518;22;45247;-73
2023/03/09 20:21:32;;;;;;;;;4.00;1.67;;;;;12.51;73.67;99013.56;6277750;22;45151;-73
2023/03/09 20:24:00;;;;;;;;;2.00;2.00;;;;;12.51;73.88;99018.84;6277100;22;46044;-73
2023/03/09 20:26:29;;;;;;;;;4.00;2.00;;;;;12.47;74.25;99019.81;6275712;22;45290;-73
2023/03/09 20:28:57;;;;;;;;;2.00;2.00;;;;;12.24;73.89;98990.06;6275030;22;45166;-73
2023/03/09 20:31:26;;;;;;;;;2.00;2.00;;;;;12.36;74.52;99004.94;6277915;22;45379;-73
2023/03/09 20:33:52;;;;;;;;;2.33;2.33;;;;;12.39;74.01;99020.78;6274195;22;46703;-73
2023/03/09 20:36:17;;;;;;;;;3.67;3.67;;;;;12.31;75.58;99015.56;6275766;22;45303;-72
2023/03/09 20:38:43;;;;;;;;;5.00;3.00;;;;;12.26;74.21;99005.00;6277738;22;45211;-73
2023/03/09 20:41:11;;;;;;;;;1.00;1.00;;;;;12.13;74.12;98989.28;6277855;22;45208;-72
2023/03/09 20:43:37;;;;;;;;;5.00;3.00;;;;;12.22;74.00;99013.91;6277069;22;45178;-72
2023/03/09 20:46:05;;;;;;;;;4.00;2.00;;;;;12.16;74.33;98991.91;6275582;22;45324;-72
2023/03/09 20:48:32;;;;;;;;;4.00;2.00;;;;;12.31;74.32;99018.22;6274908;22;45256;-72
2023/03/09 20:50:57;;;;;;;;;4.00;4.00;;;;;12.27;75.08;99014.75;6277223;22;45231;-72